K5IDL Weather Reports


Display with metric or nautical units.
time (UTC)temp
F
wind
direction
speed
MPH
gust
MPH
rain 1hr
in
rain 24hr
in
rain mn
in
humidity
%
barometer
mb
20220629105106 72 195 0.0 0.0 0.00 0.00 0.00 72 1020.3
20220629104604 72 185 0.0 0.0 0.00 0.00 0.00 73 1019.9
20220629104103 72 188 0.0 0.0 0.00 0.00 0.00 73 1019.9
20220629103602 72 194 0.0 0.0 0.00 0.00 0.00 72 1019.9
20220629103101 72 227 0.0 0.0 0.00 0.00 0.00 72 1019.9
20220629102601 72 178 0.0 0.0 0.00 0.00 0.00 72 1019.9
20220629102100 72 209 0.0 0.0 0.00 0.00 0.00 72 1019.9
20220629101558 72 194 0.0 0.0 0.00 0.00 0.00 72 1019.9
20220629101057 72 186 0.0 0.0 0.00 0.00 0.00 72 1019.9
20220629100557 72 198 0.0 0.0 0.00 0.00 0.00 72 1019.9
20220629100056 72 210 2.0 3.0 0.00 0.00 0.00 72 1019.9
20220629095555 71 182 0.0 0.0 0.00 0.00 0.00 73 1019.9
20220629095054 71 188 0.0 0.0 0.00 0.00 0.00 73 1019.9
20220629094553 71 186 0.0 0.0 0.00 0.00 0.00 74 1019.9
20220629094052 71 195 0.0 0.0 0.00 0.00 0.00 74 1019.9
20220629093549 72 199 0.0 0.0 0.00 0.00 0.00 74 1019.9
20220629093049 72 200 0.0 0.0 0.00 0.00 0.00 74 1019.9
20220629092533 72 219 0.0 0.0 0.00 0.00 0.00 74 1019.9
20220629092031 72 187 0.0 0.0 0.00 0.00 0.00 74 1019.9
20220629091532 72 180 0.0 0.0 0.00 0.00 0.00 74 1019.9
20220629091031 72 199 0.0 0.0 0.00 0.00 0.00 74 1019.6
20220629090530 72 198 0.0 0.0 0.00 0.00 0.00 74 1019.6
20220629090030 73 182 0.0 0.0 0.00 0.00 0.00 73 1019.9
20220629085529 73 182 0.0 0.0 0.00 0.00 0.00 73 1019.9
20220629085029 73 180 0.0 0.0 0.00 0.00 0.00 73 1019.6
20220629084527 73 162 0.0 0.0 0.00 0.00 0.00 72 1019.9
20220629084026 73 162 0.0 0.0 0.00 0.00 0.00 72 1019.9
20220629083525 73 162 0.0 0.0 0.00 0.00 0.00 71 1019.6
20220629083024 73 179 0.0 0.0 0.00 0.00 0.00 71 1019.6
20220629082523 73 176 0.0 0.0 0.00 0.00 0.00 70 1019.6
20220629082022 73 188 0.0 0.0 0.00 0.00 0.00 70 1019.9
20220629081521 73 221 2.0 3.0 0.00 0.00 0.00 69 1019.9
20220629081020 73 216 1.0 3.0 0.00 0.00 0.00 69 1019.9
20220629080519 74 211 0.0 0.0 0.00 0.00 0.00 69 1019.9
20220629080018 74 235 0.0 3.0 0.00 0.00 0.00 69 1019.9
20220629075517 74 184 0.0 0.0 0.00 0.00 0.00 68 1019.9
20220629075016 74 173 0.0 0.0 0.00 0.00 0.00 68 1019.9
20220629074515 74 197 0.0 0.0 0.00 0.00 0.00 67 1019.9
20220629074015 74 197 0.0 0.0 0.00 0.00 0.00 67 1019.9
20220629073513 74 182 0.0 0.0 0.00 0.00 0.00 67 1019.9
20220629073011 74 175 0.0 3.0 0.00 0.00 0.00 66 1019.9
20220629072511 74 175 0.0 3.0 0.00 0.00 0.00 66 1019.9
20220629072010 74 175 0.0 3.0 0.00 0.00 0.00 66 1019.9
20220629071509 75 187 0.0 0.0 0.00 0.00 0.00 66 1019.9
20220629071008 75 189 0.0 0.0 0.00 0.00 0.00 66 1019.9
20220629070507 75 170 0.0 0.0 0.00 0.00 0.00 66 1019.9
20220629070006 75 208 2.0 3.0 0.00 0.00 0.00 66 1019.9
20220629065504 75 190 0.0 0.0 0.00 0.00 0.00 65 1019.9
20220629065003 75 177 0.0 0.0 0.00 0.00 0.00 66 1019.9
20220629064501 75 173 0.0 0.0 0.00 0.00 0.00 65 1019.9
20220629064001 75 176 0.0 0.0 0.00 0.00 0.00 65 1019.9
20220629063501 75 201 0.0 3.0 0.00 0.00 0.00 65 1019.9
20220629063000 75 201 0.0 3.0 0.00 0.00 0.00 65 1019.9
20220629062500 75 240 1.0 3.0 0.00 0.00 0.00 65 1019.9
20220629061958 75 191 0.0 0.0 0.00 0.00 0.00 65 1020.3
20220629061458 75 167 0.0 0.0 0.00 0.00 0.00 65 1019.9
20220629060958 75 200 0.0 0.0 0.00 0.00 0.00 64 1019.9
20220629060456 76 175 0.0 0.0 0.00 0.00 0.00 64 1019.9
20220629055955 76 196 0.0 0.0 0.00 0.00 0.00 64 1019.9
20220629055455 76 177 0.0 3.0 0.00 0.00 0.00 63 1019.9
20220629054954 76 220 3.0 5.0 0.00 0.00 0.00 63 1019.9
20220629054455 76 180 0.0 0.0 0.00 0.00 0.00 63 1019.9
20220629053953 76 221 2.0 3.0 0.00 0.00 0.00 62 1019.9
20220629053452 77 213 0.0 0.0 0.00 0.00 0.00 62 1019.9
20220629052951 77 198 0.0 0.0 0.00 0.00 0.00 62 1019.9
20220629052449 77 193 0.0 3.0 0.00 0.00 0.00 61 1019.9
20220629051948 77 213 0.0 3.0 0.00 0.00 0.00 61 1020.3
20220629051449 77 183 0.0 0.0 0.00 0.00 0.00 60 1020.3
20220629050947 77 208 1.0 3.0 0.00 0.00 0.00 60 1020.3
20220629050447 77 215 4.0 5.0 0.00 0.00 0.00 59 1020.3
20220629045946 77 185 0.0 3.0 0.00 0.00 0.00 60 1020.3
20220629045445 78 174 0.0 0.0 0.00 0.00 0.00 59 1019.9
20220629044943 78 240 1.0 3.0 0.00 0.00 0.00 59 1019.9
20220629044442 78 223 0.0 3.0 0.00 0.00 0.00 58 1020.3
20220629043941 78 185 0.0 0.0 0.00 0.00 0.00 58 1020.3
20220629043440 78 239 1.0 3.0 0.00 0.00 0.00 58 1020.3
20220629042939 78 216 0.0 3.0 0.00 0.00 0.00 57 1020.3
20220629042438 78 183 1.0 3.0 0.00 0.00 0.00 57 1020.3
20220629041937 78 213 2.0 3.0 0.00 0.00 0.00 57 1020.3
20220629041436 78 172 0.0 3.0 0.00 0.00 0.00 56 1020.3
20220629040935 78 179 2.0 3.0 0.00 0.00 0.00 56 1019.9
20220629040434 79 184 3.0 5.0 0.00 0.00 0.00 56 1020.3
20220629035933 79 253 3.0 5.0 0.00 0.00 0.00 56 1020.3
20220629035432 79 231 1.0 3.0 0.00 0.00 0.00 55 1019.9
20220629034931 79 220 1.0 3.0 0.00 0.00 0.00 55 1019.9
20220629034429 79 185 0.0 0.0 0.00 0.00 0.00 55 1019.9
20220629033928 79 165 0.0 0.0 0.00 0.00 0.00 55 1019.9
20220629033429 79 183 1.0 3.0 0.00 0.00 0.00 55 1019.9
20220629032929 79 196 1.0 3.0 0.00 0.00 0.00 55 1019.9
20220629032427 80 199 0.0 0.0 0.00 0.00 0.00 54 1019.9
20220629031926 80 175 1.0 3.0 0.00 0.00 0.00 54 1019.9
20220629031426 80 194 1.0 3.0 0.00 0.00 0.00 54 1019.9
20220629030924 80 209 1.0 3.0 0.00 0.00 0.00 54 1019.9
20220629030423 80 210 1.0 3.0 0.00 0.00 0.00 53 1019.9
20220629025924 80 175 2.0 3.0 0.00 0.00 0.00 53 1019.6
20220629025422 80 233 4.0 5.0 0.00 0.00 0.00 53 1019.6
20220629024923 81 212 2.0 3.0 0.00 0.00 0.00 53 1019.6
20220629024422 81 127 2.0 3.0 0.00 0.00 0.00 53 1019.6
20220629023921 81 173 2.0 3.0 0.00 0.00 0.00 52 1019.6
20220629023420 81 187 3.0 5.0 0.00 0.00 0.00 52 1019.6
20220629022920 81 220 2.0 5.0 0.00 0.00 0.00 51 1019.3
20220629022419 82 172 0.0 3.0 0.00 0.00 0.00 51 1019.3
20220629021918 82 216 0.0 3.0 0.00 0.00 0.00 51 1019.3
20220629021415 82 235 0.0 3.0 0.00 0.00 0.00 50 1019.3
20220629020913 82 174 0.0 0.0 0.00 0.00 0.00 48 1019.3
20220629020412 83 221 3.0 3.0 0.00 0.00 0.00 48 1019.3
20220629015911 83 194 0.0 0.0 0.00 0.00 0.00 47 1019.3
20220629015411 83 235 4.0 5.0 0.00 0.00 0.00 47 1019.3
20220629014910 83 236 1.0 3.0 0.00 0.00 0.00 47 1019.3
20220629014409 83 198 1.0 3.0 0.00 0.00 0.00 46 1018.9
20220629013910 84 150 1.0 3.0 0.00 0.00 0.00 46 1018.9
20220629013408 84 216 2.0 3.0 0.00 0.00 0.00 46 1018.9
20220629012908 84 188 1.0 3.0 0.00 0.00 0.00 45 1018.9
20220629012408 84 215 3.0 5.0 0.00 0.00 0.00 45 1018.9
20220629011907 84 181 3.0 5.0 0.00 0.00 0.00 44 1018.9
20220629011407 85 239 3.0 5.0 0.00 0.00 0.00 44 1018.9
20220629010907 85 226 3.0 5.0 0.00 0.00 0.00 43 1018.9
20220629010406 85 216 1.0 3.0 0.00 0.00 0.00 43 1018.6
20220629005905 86 194 3.0 5.0 0.00 0.00 0.00 43 1018.6
20220629005404 86 214 4.0 5.0 0.00 0.00 0.00 42 1018.6
20220629004904 86 286 1.0 3.0 0.00 0.00 0.00 41 1018.6
20220629004403 87 211 4.0 7.0 0.00 0.00 0.00 40 1018.6
20220629003903 87 229 1.0 3.0 0.00 0.00 0.00 35 1018.6
20220629003402 87 185 0.0 3.0 0.00 0.00 0.00 35 1018.2
20220629002901 87 215 4.0 5.0 0.00 0.00 0.00 35 1018.2
20220629002400 87 207 2.0 3.0 0.00 0.00 0.00 36 1018.6
20220629001858 87 189 0.0 0.0 0.00 0.00 0.00 36 1018.2
20220629001358 87 235 3.0 5.0 0.00 0.00 0.00 36 1018.2
20220629000857 87 206 1.0 3.0 0.00 0.00 0.00 35 1018.2
20220629000358 88 189 4.0 5.0 0.00 0.00 0.00 35 1018.2
20220628235857 88 215 1.0 3.0 0.00 0.00 0.00 35 1018.2
20220628235357 88 238 6.0 7.0 0.00 0.00 0.00 34 1018.2
20220628234857 88 230 6.0 7.0 0.00 0.00 0.00 34 1018.2
20220628234355 88 157 5.0 7.0 0.00 0.00 0.00 35 1018.2
20220628233854 88 206 1.0 3.0 0.00 0.00 0.00 35 1018.2
20220628233354 88 212 1.0 3.0 0.00 0.00 0.00 35 1018.2
20220628232852 88 200 6.0 10.0 0.00 0.00 0.00 35 1018.2
20220628232352 88 177 3.0 5.0 0.00 0.00 0.00 37 1018.2
20220628231852 88 258 4.0 5.0 0.00 0.00 0.00 34 1018.2
20220628231351 88 222 3.0 5.0 0.00 0.00 0.00 34 1018.2
20220628230851 88 211 5.0 7.0 0.00 0.00 0.00 35 1018.2
20220628230350 89 205 3.0 5.0 0.00 0.00 0.00 36 1018.6
20220628225849 89 226 3.0 5.0 0.00 0.00 0.00 36 1018.6
20220628225347 89 149 0.0 0.0 0.00 0.00 0.00 35 1018.6
20220628224846 89 225 0.0 0.0 0.00 0.00 0.00 35 1018.6
20220628224345 89 189 3.0 5.0 0.00 0.00 0.00 35 1018.9
20220628223844 89 228 0.0 3.0 0.00 0.00 0.00 35 1018.9
20220628223344 89 193 0.0 3.0 0.00 0.00 0.00 35 1018.9
20220628222843 89 196 2.0 3.0 0.00 0.00 0.00 35 1018.9
20220628222341 89 214 3.0 5.0 0.00 0.00 0.00 35 1018.9
20220628221841 89 188 4.0 7.0 0.00 0.00 0.00 35 1019.3
20220628221340 89 172 3.0 5.0 0.00 0.00 0.00 33 1019.3
20220628220838 89 36 0.0 0.0 0.00 0.00 0.00 35 1019.6
20220628220338 89 180 4.0 7.0 0.00 0.00 0.00 35 1019.6
20220628215838 89 121 2.0 3.0 0.00 0.00 0.00 35 1019.3
20220628215337 89 209 3.0 5.0 0.00 0.00 0.00 34 1019.6
20220628214836 89 243 4.0 5.0 0.00 0.00 0.00 34 1019.6
20220628214335 89 181 2.0 5.0 0.00 0.00 0.00 35 1019.6
20220628213836 89 192 2.0 3.0 0.00 0.00 0.00 35 1019.9
20220628213334 89 190 4.0 5.0 0.00 0.00 0.00 34 1019.9
20220628212835 89 161 2.0 3.0 0.00 0.00 0.00 35 1019.9
20220628212334 89 179 3.0 5.0 0.00 0.00 0.00 37 1019.9
20220628211832 89 193 0.0 0.0 0.00 0.00 0.00 36 1020.3
20220628211332 89 148 4.0 5.0 0.00 0.00 0.00 36 1020.3
20220628210831 89 186 1.0 3.0 0.00 0.00 0.00 36 1020.3
20220628210329 89 188 2.0 3.0 0.00 0.00 0.00 36 1020.3
20220628205829 89 228 6.0 7.0 0.00 0.00 0.00 34 1020.6
20220628205329 89 59 2.0 3.0 0.00 0.00 0.00 36 1020.6
20220628204828 89 227 1.0 3.0 0.00 0.00 0.00 36 1020.3
20220628204327 89 145 0.0 0.0 0.00 0.00 0.00 37 1020.6
20220628203826 89 146 3.0 5.0 0.00 0.00 0.00 37 1020.6
20220628203326 89 208 2.0 5.0 0.00 0.00 0.00 37 1020.6
20220628202824 89 161 0.0 0.0 0.00 0.00 0.00 36 1021.0
20220628202323 89 204 6.0 7.0 0.00 0.00 0.00 37 1021.0
20220628201823 89 154 5.0 7.0 0.00 0.00 0.00 37 1021.0
20220628201322 89 176 0.0 0.0 0.00 0.00 0.00 38 1021.0
20220628200821 89 162 0.0 0.0 0.00 0.00 0.00 37 1021.0
20220628200320 89 180 1.0 3.0 0.00 0.00 0.00 36 1021.0
20220628195819 89 187 0.0 0.0 0.00 0.00 0.00 37 1021.0
20220628195317 89 175 1.0 3.0 0.00 0.00 0.00 37 1021.3
20220628194816 88 241 2.0 3.0 0.00 0.00 0.00 37 1021.3
20220628194315 88 203 0.0 3.0 0.00 0.00 0.00 37 1021.3
20220628193816 88 240 3.0 3.0 0.00 0.00 0.00 38 1021.3
20220628193315 89 186 0.0 0.0 0.00 0.00 0.00 37 1021.3
20220628192814 89 58 1.0 3.0 0.00 0.00 0.00 38 1021.3
20220628192314 89 256 4.0 5.0 0.00 0.00 0.00 38 1021.3
20220628191813 89 134 0.0 0.0 0.00 0.00 0.00 36 1021.3
20220628191312 89 310 2.0 5.0 0.00 0.00 0.00 39 1021.3
20220628190811 89 226 1.0 3.0 0.00 0.00 0.00 38 1021.6
20220628190309 89 209 3.0 5.0 0.00 0.00 0.00 41 1021.6
20220628185809 89 229 4.0 5.0 0.00 0.00 0.00 37 1022.1
20220628185308 88 269 5.0 7.0 0.00 0.00 0.00 37 1021.6
20220628184807 89 137 5.0 7.0 0.00 0.00 0.00 40 1022.1
20220628184306 89 247 5.0 7.0 0.00 0.00 0.00 39 1022.1
20220628183806 89 167 0.0 0.0 0.00 0.00 0.00 38 1022.1
20220628183306 89 141 2.0 5.0 0.00 0.00 0.00 39 1022.1
20220628182805 88 153 2.0 3.0 0.00 0.00 0.00 38 1022.1
20220628182304 88 355 0.0 3.0 0.00 0.00 0.00 38 1022.1
20220628181803 88 185 1.0 3.0 0.00 0.00 0.00 41 1022.4
20220628181302 88 210 3.0 3.0 0.00 0.00 0.00 39 1022.4
20220628180800 87 200 6.0 7.0 0.00 0.00 0.00 41 1022.4
20220628180259 87 233 1.0 3.0 0.00 0.00 0.00 40 1022.4
20220628175758 87 237 4.0 5.0 0.00 0.00 0.00 40 1022.4
20220628175258 87 326 3.0 5.0 0.00 0.00 0.00 41 1022.4
20220628174757 87 287 2.0 5.0 0.00 0.00 0.00 43 1022.4
20220628174256 87 218 3.0 5.0 0.00 0.00 0.00 42 1022.4
20220628173754 86 202 1.0 3.0 0.00 0.00 0.00 41 1022.4
20220628173253 86 204 4.0 5.0 0.00 0.00 0.00 42 1022.4
20220628172753 86 140 0.0 0.0 0.00 0.00 0.00 40 1022.4
20220628172251 86 227 2.0 3.0 0.00 0.00 0.00 42 1022.4
20220628171749 86 183 7.0 7.0 0.00 0.00 0.00 41 1022.4
20220628171249 86 184 1.0 3.0 0.00 0.00 0.00 43 1022.4
20220628170749 86 268 4.0 5.0 0.00 0.00 0.00 42 1022.4
20220628170248 86 151 3.0 5.0 0.00 0.00 0.00 42 1022.4
20220628165748 86 260 3.0 5.0 0.00 0.00 0.00 43 1022.7
20220628165247 86 227 2.0 3.0 0.00 0.00 0.00 42 1022.4
20220628164746 86 206 4.0 5.0 0.00 0.00 0.00 42 1022.4
20220628164246 86 259 1.0 3.0 0.00 0.00 0.00 42 1022.7
20220628163744 86 201 5.0 5.0 0.00 0.00 0.00 43 1022.7
20220628163244 86 203 8.0 10.0 0.00 0.00 0.00 41 1022.7
20220628162743 85 230 3.0 5.0 0.00 0.00 0.00 42 1022.7
20220628162243 85 198 3.0 5.0 0.00 0.00 0.00 44 1022.7
20220628161741 84 200 5.0 7.0 0.00 0.00 0.00 42 1022.7
20220628161240 84 222 2.0 3.0 0.00 0.00 0.00 43 1022.4
20220628160738 84 151 3.0 5.0 0.00 0.00 0.00 44 1022.4
20220628160238 83 254 6.0 7.0 0.00 0.00 0.00 44 1022.4
20220628155737 83 130 4.0 5.0 0.00 0.00 0.00 44 1022.4
20220628155237 84 201 7.0 10.0 0.00 0.00 0.00 45 1022.4
20220628154736 83 145 2.0 5.0 0.00 0.00 0.00 45 1022.4
20220628154235 83 189 2.0 5.0 0.00 0.00 0.00 45 1022.4
20220628153736 83 207 7.0 10.0 0.00 0.00 0.00 46 1022.4
20220628153235 83 236 7.0 7.0 0.00 0.00 0.00 46 1022.4
20220628152734 83 182 4.0 7.0 0.00 0.00 0.00 44 1022.4
20220628152233 82 183 2.0 5.0 0.00 0.00 0.00 46 1022.4
20220628151732 82 173 1.0 3.0 0.00 0.00 0.00 47 1022.4
20220628151231 82 200 4.0 5.0 0.00 0.00 0.00 47 1022.4
20220628150730 82 199 3.0 5.0 0.00 0.00 0.00 48 1022.4
20220628150230 81 213 4.0 7.0 0.00 0.00 0.00 49 1022.4
20220628145729 80 239 4.0 5.0 0.00 0.00 0.00 51 1022.4
20220628145229 80 201 1.0 3.0 0.00 0.00 0.00 52 1022.1
20220628144727 79 199 2.0 3.0 0.00 0.00 0.00 50 1022.4
20220628144226 78 225 2.0 3.0 0.00 0.00 0.00 53 1022.4
20220628143725 78 178 2.0 3.0 0.00 0.00 0.00 55 1022.4
20220628143224 78 197 1.0 3.0 0.00 0.00 0.00 59 1022.4
20220628142725 78 201 2.0 3.0 0.00 0.00 0.00 59 1022.4
20220628142224 78 187 0.0 0.0 0.00 0.00 0.00 58 1022.4
20220628141722 77 227 2.0 3.0 0.00 0.00 0.00 59 1022.4
20220628141221 76 198 0.0 3.0 0.00 0.00 0.00 60 1022.1
20220628140721 76 230 1.0 3.0 0.00 0.00 0.00 61 1022.1
20220628140220 76 84 0.0 0.0 0.00 0.00 0.00 60 1022.1
20220628135719 76 212 1.0 3.0 0.00 0.00 0.00 63 1022.1
20220628135218 75 193 3.0 5.0 0.00 0.00 0.00 64 1022.1
20220628134717 75 232 3.0 3.0 0.00 0.00 0.00 62 1022.1
20220628134216 75 183 0.0 0.0 0.00 0.00 0.00 64 1022.1
20220628133717 74 213 2.0 3.0 0.00 0.00 0.00 65 1022.1
20220628133216 74 207 1.0 3.0 0.00 0.00 0.00 67 1022.1
20220628132715 74 190 0.0 3.0 0.00 0.00 0.00 70 1022.1
20220628132215 74 214 1.0 3.0 0.00 0.00 0.00 72 1022.1
20220628131713 74 206 0.0 3.0 0.00 0.00 0.00 72 1022.1
20220628131212 74 198 0.0 3.0 0.00 0.00 0.00 72 1022.1
20220628130711 74 210 2.0 5.0 0.00 0.00 0.00 73 1022.1
20220628130211 73 244 2.0 5.0 0.00 0.00 0.00 72 1022.1
20220628125709 73 212 1.0 3.0 0.00 0.00 0.00 73 1022.1
20220628125208 73 242 3.0 5.0 0.00 0.00 0.00 73 1021.6
20220628124707 73 225 2.0 3.0 0.00 0.00 0.00 73 1021.6
20220628124207 73 187 1.0 3.0 0.00 0.00 0.00 74 1021.6
20220628123706 73 189 0.0 0.0 0.00 0.00 0.00 74 1021.3
20220628123205 73 173 2.0 3.0 0.00 0.00 0.00 73 1021.3
20220628122704 73 201 0.0 3.0 0.00 0.00 0.00 74 1021.6
20220628122203 73 244 2.0 3.0 0.00 0.00 0.00 74 1021.6
20220628121701 73 228 1.0 3.0 0.00 0.00 0.00 75 1021.3
20220628121201 73 223 1.0 3.0 0.00 0.00 0.00 75 1021.6
20220628120700 73 211 0.0 0.0 0.00 0.00 0.00 75 1021.3
20220628120159 72 239 0.0 3.0 0.00 0.00 0.00 75 1021.3
20220628115658 72 231 3.0 5.0 0.00 0.00 0.00 75 1021.6
20220628115158 72 170 0.0 0.0 0.00 0.00 0.00 76 1021.6
20220628114656 72 154 0.0 0.0 0.00 0.00 0.00 75 1021.3
20220628114156 72 201 0.0 0.0 0.00 0.00 0.00 76 1021.3
20220628113655 72 210 1.0 3.0 0.00 0.00 0.00 76 1021.3
20220628113155 72 204 0.0 0.0 0.00 0.00 0.00 77 1021.3
20220628112654 72 205 0.0 0.0 0.00 0.00 0.00 78 1021.3
20220628112153 73 156 0.0 0.0 0.00 0.00 0.00 77 1021.3
20220628111651 73 187 0.0 0.0 0.00 0.00 0.00 77 1021.3
20220628111151 73 153 0.0 0.0 0.00 0.00 0.00 76 1021.0
20220628110651 73 193 0.0 0.0 0.00 0.00 0.00 75 1021.0
20220628110149 73 206 0.0 0.0 0.00 0.00 0.00 75 1021.0
20220628105647 73 187 0.0 0.0 0.00 0.00 0.00 74 1021.0